sensor_id;sensor_type;location;lat;lon;timestamp;P1;durP1;ratioP1;P2;durP2;ratioP2
15256;SDS011;7731;50.720;6.912;2023-11-18T00:00:23;16.53;;;14.73;;
15256;SDS011;7731;50.720;6.912;2023-11-18T00:02:54;19.53;;;15.50;;
15256;SDS011;7731;50.720;6.912;2023-11-18T00:05:25;17.80;;;14.27;;
15256;SDS011;7731;50.720;6.912;2023-11-18T00:07:58;16.90;;;14.23;;
15256;SDS011;7731;50.720;6.912;2023-11-18T00:10:28;17.10;;;14.10;;
15256;SDS011;7731;50.720;6.912;2023-11-18T00:12:59;18.23;;;13.80;;
15256;SDS011;7731;50.720;6.912;2023-11-18T00:15:30;17.70;;;14.80;;
15256;SDS011;7731;50.720;6.912;2023-11-18T00:18:01;17.97;;;14.10;;
15256;SDS011;7731;50.720;6.912;2023-11-18T00:20:32;16.40;;;14.23;;
15256;SDS011;7731;50.720;6.912;2023-11-18T00:23:05;16.27;;;13.67;;
15256;SDS011;7731;50.720;6.912;2023-11-18T00:25:35;15.90;;;13.43;;
15256;SDS011;7731;50.720;6.912;2023-11-18T00:28:06;15.93;;;13.53;;
15256;SDS011;7731;50.720;6.912;2023-11-18T00:30:37;16.83;;;14.10;;
15256;SDS011;7731;50.720;6.912;2023-11-18T00:33:07;18.37;;;13.73;;
15256;SDS011;7731;50.720;6.912;2023-11-18T00:35:37;16.40;;;14.47;;
15256;SDS011;7731;50.720;6.912;2023-11-18T00:38:10;16.80;;;13.33;;
15256;SDS011;7731;50.720;6.912;2023-11-18T00:40:41;16.30;;;13.07;;
15256;SDS011;7731;50.720;6.912;2023-11-18T00:43:11;15.77;;;13.20;;
15256;SDS011;7731;50.720;6.912;2023-11-18T00:45:41;15.90;;;14.00;;
15256;SDS011;7731;50.720;6.912;2023-11-18T00:48:14;16.50;;;12.97;;
15256;SDS011;7731;50.720;6.912;2023-11-18T00:50:44;16.40;;;13.47;;
15256;SDS011;7731;50.720;6.912;2023-11-18T00:53:17;14.93;;;13.00;;
15256;SDS011;7731;50.720;6.912;2023-11-18T00:55:49;15.67;;;13.07;;
15256;SDS011;7731;50.720;6.912;2023-11-18T00:58:20;16.47;;;12.37;;
15256;SDS011;7731;50.720;6.912;2023-11-18T01:00:50;15.07;;;12.57;;
15256;SDS011;7731;50.720;6.912;2023-11-18T01:03:20;19.03;;;12.30;;
15256;SDS011;7731;50.720;6.912;2023-11-18T01:05:52;16.37;;;12.63;;
15256;SDS011;7731;50.720;6.912;2023-11-18T01:08:24;15.00;;;12.33;;
15256;SDS011;7731;50.720;6.912;2023-11-18T01:10:55;14.77;;;12.83;;
15256;SDS011;7731;50.720;6.912;2023-11-18T01:13:25;13.90;;;12.07;;
15256;SDS011;7731;50.720;6.912;2023-11-18T01:15:55;14.33;;;12.83;;
15256;SDS011;7731;50.720;6.912;2023-11-18T01:18:26;16.00;;;12.50;;
15256;SDS011;7731;50.720;6.912;2023-11-18T01:20:57;15.30;;;13.03;;
15256;SDS011;7731;50.720;6.912;2023-11-18T01:23:30;14.83;;;12.60;;
15256;SDS011;7731;50.720;6.912;2023-11-18T01:26:00;16.07;;;13.20;;
15256;SDS011;7731;50.720;6.912;2023-11-18T01:28:31;14.93;;;12.30;;
15256;SDS011;7731;50.720;6.912;2023-11-18T01:31:10;15.27;;;13.63;;
15256;SDS011;7731;50.720;6.912;2023-11-18T01:33:40;17.93;;;13.00;;
15256;SDS011;7731;50.720;6.912;2023-11-18T01:36:11;17.20;;;13.47;;
15256;SDS011;7731;50.720;6.912;2023-11-18T01:38:48;16.37;;;14.00;;
15256;SDS011;7731;50.720;6.912;2023-11-18T01:41:21;14.00;;;12.43;;
15256;SDS011;7731;50.720;6.912;2023-11-18T01:43:51;15.87;;;13.37;;
15256;SDS011;7731;50.720;6.912;2023-11-18T01:46:22;14.53;;;12.33;;
15256;SDS011;7731;50.720;6.912;2023-11-18T01:48:52;15.77;;;12.40;;
15256;SDS011;7731;50.720;6.912;2023-11-18T01:51:23;16.47;;;13.43;;
15256;SDS011;7731;50.720;6.912;2023-11-18T01:53:57;16.50;;;14.30;;
15256;SDS011;7731;50.720;6.912;2023-11-18T01:56:30;16.00;;;12.97;;
15256;SDS011;7731;50.720;6.912;2023-11-18T01:59:02;16.83;;;14.17;;
15256;SDS011;7731;50.720;6.912;2023-11-18T02:01:35;17.33;;;13.93;;
15256;SDS011;7731;50.720;6.912;2023-11-18T02:04:09;17.20;;;14.90;;
15256;SDS011;7731;50.720;6.912;2023-11-18T02:06:47;16.17;;;14.03;;
15256;SDS011;7731;50.720;6.912;2023-11-18T02:09:21;16.87;;;13.97;;
15256;SDS011;7731;50.720;6.912;2023-11-18T02:11:56;16.70;;;13.20;;
15256;SDS011;7731;50.720;6.912;2023-11-18T02:14:39;16.50;;;14.03;;
15256;SDS011;7731;50.720;6.912;2023-11-18T02:17:10;13.97;;;12.47;;
15256;SDS011;7731;50.720;6.912;2023-11-18T02:19:46;16.77;;;13.60;;
15256;SDS011;7731;50.720;6.912;2023-11-18T02:22:17;16.33;;;13.97;;
15256;SDS011;7731;50.720;6.912;2023-11-18T02:24:55;15.77;;;12.97;;
15256;SDS011;7731;50.720;6.912;2023-11-18T02:27:28;15.53;;;13.40;;
15256;SDS011;7731;50.720;6.912;2023-11-18T02:29:58;16.70;;;13.20;;
15256;SDS011;7731;50.720;6.912;2023-11-18T02:32:31;15.70;;;13.20;;
15256;SDS011;7731;50.720;6.912;2023-11-18T02:35:15;15.00;;;12.43;;
15256;SDS011;7731;50.720;6.912;2023-11-18T02:37:52;15.73;;;13.63;;
15256;SDS011;7731;50.720;6.912;2023-11-18T02:40:26;16.03;;;13.37;;
15256;SDS011;7731;50.720;6.912;2023-11-18T02:43:05;15.40;;;13.73;;
15256;SDS011;7731;50.720;6.912;2023-11-18T02:45:38;16.03;;;13.30;;
15256;SDS011;7731;50.720;6.912;2023-11-18T02:48:10;19.37;;;14.27;;
15256;SDS011;7731;50.720;6.912;2023-11-18T02:50:41;17.50;;;14.70;;
15256;SDS011;7731;50.720;6.912;2023-11-18T02:53:13;17.33;;;14.43;;
15256;SDS011;7731;50.720;6.912;2023-11-18T02:55:43;19.40;;;14.77;;
15256;SDS011;7731;50.720;6.912;2023-11-18T02:58:16;15.83;;;13.83;;
15256;SDS011;7731;50.720;6.912;2023-11-18T03:00:46;19.67;;;14.37;;
15256;SDS011;7731;50.720;6.912;2023-11-18T03:03:17;18.07;;;14.13;;
15256;SDS011;7731;50.720;6.912;2023-11-18T03:05:48;17.97;;;14.90;;
15256;SDS011;7731;50.720;6.912;2023-11-18T03:08:18;17.43;;;14.17;;
15256;SDS011;7731;50.720;6.912;2023-11-18T03:10:48;17.70;;;14.07;;
15256;SDS011;7731;50.720;6.912;2023-11-18T03:13:21;18.90;;;14.13;;
15256;SDS011;7731;50.720;6.912;2023-11-18T03:15:52;17.13;;;15.00;;
15256;SDS011;7731;50.720;6.912;2023-11-18T03:18:23;17.60;;;15.30;;
15256;SDS011;7731;50.720;6.912;2023-11-18T03:20:53;17.73;;;14.63;;
15256;SDS011;7731;50.720;6.912;2023-11-18T03:23:23;18.63;;;14.27;;
15256;SDS011;7731;50.720;6.912;2023-11-18T03:25:54;18.17;;;14.63;;
15256;SDS011;7731;50.720;6.912;2023-11-18T03:28:27;16.67;;;13.67;;
15256;SDS011;7731;50.720;6.912;2023-11-18T03:30:57;17.33;;;14.40;;
15256;SDS011;7731;50.720;6.912;2023-11-18T03:33:28;19.80;;;16.77;;
15256;SDS011;7731;50.720;6.912;2023-11-18T03:35:58;17.97;;;14.50;;
15256;SDS011;7731;50.720;6.912;2023-11-18T03:38:30;20.57;;;14.30;;
15256;SDS011;7731;50.720;6.912;2023-11-18T03:41:01;17.47;;;14.10;;
15256;SDS011;7731;50.720;6.912;2023-11-18T03:43:34;17.73;;;14.77;;
15256;SDS011;7731;50.720;6.912;2023-11-18T03:46:06;17.03;;;14.50;;
15256;SDS011;7731;50.720;6.912;2023-11-18T03:48:37;17.40;;;14.93;;
15256;SDS011;7731;50.720;6.912;2023-11-18T03:51:07;20.10;;;14.73;;
15256;SDS011;7731;50.720;6.912;2023-11-18T03:53:38;19.07;;;15.37;;
15256;SDS011;7731;50.720;6.912;2023-11-18T03:56:09;21.40;;;16.77;;
15256;SDS011;7731;50.720;6.912;2023-11-18T03:58:41;18.43;;;14.90;;
15256;SDS011;7731;50.720;6.912;2023-11-18T04:01:19;19.03;;;15.23;;
15256;SDS011;7731;50.720;6.912;2023-11-18T04:03:49;17.87;;;14.77;;
15256;SDS011;7731;50.720;6.912;2023-11-18T04:06:20;17.33;;;14.77;;
15256;SDS011;7731;50.720;6.912;2023-11-18T04:08:51;18.33;;;14.80;;
15256;SDS011;7731;50.720;6.912;2023-11-18T04:11:21;19.50;;;15.17;;
15256;SDS011;7731;50.720;6.912;2023-11-18T04:13:55;18.47;;;15.80;;
15256;SDS011;7731;50.720;6.912;2023-11-18T04:16:25;18.23;;;14.70;;
15256;SDS011;7731;50.720;6.912;2023-11-18T04:18:55;18.37;;;15.37;;
15256;SDS011;7731;50.720;6.912;2023-11-18T04:21:25;19.37;;;15.40;;
15256;SDS011;7731;50.720;6.912;2023-11-18T04:23:56;19.27;;;14.90;;
15256;SDS011;7731;50.720;6.912;2023-11-18T04:26:26;20.30;;;15.60;;
15256;SDS011;7731;50.720;6.912;2023-11-18T04:28:59;18.90;;;15.63;;
15256;SDS011;7731;50.720;6.912;2023-11-18T04:31:32;18.90;;;15.83;;
15256;SDS011;7731;50.720;6.912;2023-11-18T04:34:03;18.17;;;14.97;;
15256;SDS011;7731;50.720;6.912;2023-11-18T04:36:35;18.37;;;15.30;;
15256;SDS011;7731;50.720;6.912;2023-11-18T04:39:05;20.73;;;16.00;;
15256;SDS011;7731;50.720;6.912;2023-11-18T04:41:38;16.80;;;14.17;;
15256;SDS011;7731;50.720;6.912;2023-11-18T04:44:11;19.10;;;14.13;;
15256;SDS011;7731;50.720;6.912;2023-11-18T04:46:43;16.27;;;13.33;;
15256;SDS011;7731;50.720;6.912;2023-11-18T04:49:13;17.10;;;14.23;;
15256;SDS011;7731;50.720;6.912;2023-11-18T04:51:44;17.00;;;14.37;;
15256;SDS011;7731;50.720;6.912;2023-11-18T04:54:14;18.23;;;13.60;;
15256;SDS011;7731;50.720;6.912;2023-11-18T04:56:45;17.83;;;13.87;;
15256;SDS011;7731;50.720;6.912;2023-11-18T04:59:17;15.93;;;13.47;;
15256;SDS011;7731;50.720;6.912;2023-11-18T05:01:47;17.63;;;13.97;;
15256;SDS011;7731;50.720;6.912;2023-11-18T05:04:19;15.53;;;13.87;;
15256;SDS011;7731;50.720;6.912;2023-11-18T05:06:50;18.10;;;13.87;;
15256;SDS011;7731;50.720;6.912;2023-11-18T05:09:20;14.70;;;13.10;;
15256;SDS011;7731;50.720;6.912;2023-11-18T05:11:51;18.83;;;14.97;;
15256;SDS011;7731;50.720;6.912;2023-11-18T05:14:24;18.57;;;15.40;;
15256;SDS011;7731;50.720;6.912;2023-11-18T05:16:55;17.83;;;14.27;;
15256;SDS011;7731;50.720;6.912;2023-11-18T05:19:25;16.47;;;13.40;;
15256;SDS011;7731;50.720;6.912;2023-11-18T05:21:56;17.50;;;14.53;;
15256;SDS011;7731;50.720;6.912;2023-11-18T05:24:26;17.30;;;14.97;;
15256;SDS011;7731;50.720;6.912;2023-11-18T05:26:56;18.20;;;14.63;;
15256;SDS011;7731;50.720;6.912;2023-11-18T05:29:39;17.63;;;14.93;;
15256;SDS011;7731;50.720;6.912;2023-11-18T05:32:11;17.90;;;14.87;;
15256;SDS011;7731;50.720;6.912;2023-11-18T05:34:42;17.37;;;14.60;;
15256;SDS011;7731;50.720;6.912;2023-11-18T05:37:12;16.67;;;14.20;;
15256;SDS011;7731;50.720;6.912;2023-11-18T05:39:44;20.80;;;15.37;;
15256;SDS011;7731;50.720;6.912;2023-11-18T05:42:19;18.90;;;14.23;;
15256;SDS011;7731;50.720;6.912;2023-11-18T05:44:53;17.33;;;14.13;;
15256;SDS011;7731;50.720;6.912;2023-11-18T05:47:25;18.10;;;13.30;;
15256;SDS011;7731;50.720;6.912;2023-11-18T05:49:56;16.00;;;14.10;;
15256;SDS011;7731;50.720;6.912;2023-11-18T05:52:26;16.30;;;13.30;;
15256;SDS011;7731;50.720;6.912;2023-11-18T05:54:59;17.00;;;14.30;;
15256;SDS011;7731;50.720;6.912;2023-11-18T05:57:30;17.53;;;14.53;;
15256;SDS011;7731;50.720;6.912;2023-11-18T06:00:03;16.07;;;13.23;;
15256;SDS011;7731;50.720;6.912;2023-11-18T06:02:38;17.27;;;13.93;;
15256;SDS011;7731;50.720;6.912;2023-11-18T06:05:09;15.50;;;12.07;;
15256;SDS011;7731;50.720;6.912;2023-11-18T06:07:40;13.53;;;11.03;;
15256;SDS011;7731;50.720;6.912;2023-11-18T06:10:14;14.27;;;12.27;;
15256;SDS011;7731;50.720;6.912;2023-11-18T06:12:46;15.37;;;12.30;;
15256;SDS011;7731;50.720;6.912;2023-11-18T06:15:22;13.70;;;12.30;;
15256;SDS011;7731;50.720;6.912;2023-11-18T06:17:54;14.33;;;12.30;;
15256;SDS011;7731;50.720;6.912;2023-11-18T06:20:24;13.80;;;11.93;;
15256;SDS011;7731;50.720;6.912;2023-11-18T06:22:54;15.23;;;11.67;;
15256;SDS011;7731;50.720;6.912;2023-11-18T06:25:27;16.10;;;11.70;;
15256;SDS011;7731;50.720;6.912;2023-11-18T06:27:58;13.80;;;11.67;;
15256;SDS011;7731;50.720;6.912;2023-11-18T06:30:31;14.40;;;12.10;;
15256;SDS011;7731;50.720;6.912;2023-11-18T06:33:02;14.67;;;11.93;;
15256;SDS011;7731;50.720;6.912;2023-11-18T06:35:33;17.07;;;13.30;;
15256;SDS011;7731;50.720;6.912;2023-11-18T06:38:06;14.73;;;12.33;;
15256;SDS011;7731;50.720;6.912;2023-11-18T06:40:39;16.23;;;12.80;;
15256;SDS011;7731;50.720;6.912;2023-11-18T06:43:12;15.80;;;12.97;;
15256;SDS011;7731;50.720;6.912;2023-11-18T06:45:45;12.57;;;11.27;;
15256;SDS011;7731;50.720;6.912;2023-11-18T06:48:18;14.77;;;11.80;;
15256;SDS011;7731;50.720;6.912;2023-11-18T06:50:49;13.17;;;10.60;;
15256;SDS011;7731;50.720;6.912;2023-11-18T06:53:19;13.97;;;11.83;;
15256;SDS011;7731;50.720;6.912;2023-11-18T06:55:49;16.30;;;11.80;;
15256;SDS011;7731;50.720;6.912;2023-11-18T06:58:20;13.50;;;11.77;;
15256;SDS011;7731;50.720;6.912;2023-11-18T07:00:53;13.90;;;11.43;;
15256;SDS011;7731;50.720;6.912;2023-11-18T07:03:23;16.50;;;11.73;;
15256;SDS011;7731;50.720;6.912;2023-11-18T07:05:53;14.30;;;12.00;;
15256;SDS011;7731;50.720;6.912;2023-11-18T07:08:23;14.30;;;10.97;;
15256;SDS011;7731;50.720;6.912;2023-11-18T07:10:55;13.27;;;11.17;;
15256;SDS011;7731;50.720;6.912;2023-11-18T07:13:26;13.40;;;10.67;;
15256;SDS011;7731;50.720;6.912;2023-11-18T07:15:59;12.53;;;11.00;;
15256;SDS011;7731;50.720;6.912;2023-11-18T07:18:31;11.10;;;9.83;;
15256;SDS011;7731;50.720;6.912;2023-11-18T07:21:02;12.10;;;10.13;;
15256;SDS011;7731;50.720;6.912;2023-11-18T07:23:36;11.60;;;10.10;;
15256;SDS011;7731;50.720;6.912;2023-11-18T07:26:06;13.17;;;9.77;;
15256;SDS011;7731;50.720;6.912;2023-11-18T07:28:36;11.60;;;9.80;;
15256;SDS011;7731;50.720;6.912;2023-11-18T07:31:09;10.70;;;9.53;;
15256;SDS011;7731;50.720;6.912;2023-11-18T07:33:40;11.37;;;9.30;;
15256;SDS011;7731;50.720;6.912;2023-11-18T07:36:14;13.13;;;9.37;;
15256;SDS011;7731;50.720;6.912;2023-11-18T07:38:47;10.77;;;8.47;;
15256;SDS011;7731;50.720;6.912;2023-11-18T07:41:18;11.43;;;9.23;;
15256;SDS011;7731;50.720;6.912;2023-11-18T07:43:58;10.47;;;8.67;;
15256;SDS011;7731;50.720;6.912;2023-11-18T07:46:31;9.97;;;8.57;;
15256;SDS011;7731;50.720;6.912;2023-11-18T07:49:05;10.27;;;8.73;;
15256;SDS011;7731;50.720;6.912;2023-11-18T07:51:38;9.77;;;8.10;;
15256;SDS011;7731;50.720;6.912;2023-11-18T07:54:08;11.07;;;8.17;;
15256;SDS011;7731;50.720;6.912;2023-11-18T07:56:40;11.47;;;8.67;;
15256;SDS011;7731;50.720;6.912;2023-11-18T07:59:14;10.63;;;8.20;;
15256;SDS011;7731;50.720;6.912;2023-11-18T08:01:47;8.87;;;7.97;;
15256;SDS011;7731;50.720;6.912;2023-11-18T08:04:20;9.80;;;8.00;;
15256;SDS011;7731;50.720;6.912;2023-11-18T08:06:52;10.93;;;8.23;;
15256;SDS011;7731;50.720;6.912;2023-11-18T08:09:23;10.97;;;8.63;;
15256;SDS011;7731;50.720;6.912;2023-11-18T08:11:53;12.23;;;8.67;;
15256;SDS011;7731;50.720;6.912;2023-11-18T08:14:27;9.07;;;7.73;;
15256;SDS011;7731;50.720;6.912;2023-11-18T08:17:00;10.47;;;8.17;;
15256;SDS011;7731;50.720;6.912;2023-11-18T08:19:31;9.87;;;8.33;;
15256;SDS011;7731;50.720;6.912;2023-11-18T08:22:04;12.27;;;9.17;;
15256;SDS011;7731;50.720;6.912;2023-11-18T08:24:35;10.43;;;8.43;;
15256;SDS011;7731;50.720;6.912;2023-11-18T08:27:06;17.00;;;10.80;;
15256;SDS011;7731;50.720;6.912;2023-11-18T08:29:36;11.00;;;9.10;;
15256;SDS011;7731;50.720;6.912;2023-11-18T08:32:10;14.87;;;11.10;;
15256;SDS011;7731;50.720;6.912;2023-11-18T08:34:40;13.07;;;9.87;;
15256;SDS011;7731;50.720;6.912;2023-11-18T08:37:11;16.50;;;10.93;;
15256;SDS011;7731;50.720;6.912;2023-11-18T08:39:42;14.20;;;9.60;;
15256;SDS011;7731;50.720;6.912;2023-11-18T08:42:12;14.60;;;10.37;;
15256;SDS011;7731;50.720;6.912;2023-11-18T08:44:43;13.53;;;9.70;;
15256;SDS011;7731;50.720;6.912;2023-11-18T08:47:18;14.87;;;8.83;;
15256;SDS011;7731;50.720;6.912;2023-11-18T08:49:48;9.53;;;8.30;;
15256;SDS011;7731;50.720;6.912;2023-11-18T08:52:18;14.60;;;8.73;;
15256;SDS011;7731;50.720;6.912;2023-11-18T08:54:49;12.57;;;9.03;;
15256;SDS011;7731;50.720;6.912;2023-11-18T08:57:32;12.63;;;9.07;;
15256;SDS011;7731;50.720;6.912;2023-11-18T09:00:15;11.03;;;8.83;;
15256;SDS011;7731;50.720;6.912;2023-11-18T09:03:09;15.50;;;9.83;;
15256;SDS011;7731;50.720;6.912;2023-11-18T09:05:45;11.70;;;8.87;;
15256;SDS011;7731;50.720;6.912;2023-11-18T09:08:24;10.07;;;8.37;;
15256;SDS011;7731;50.720;6.912;2023-11-18T09:11:16;16.43;;;11.00;;
15256;SDS011;7731;50.720;6.912;2023-11-18T09:13:49;11.87;;;8.90;;
15256;SDS011;7731;50.720;6.912;2023-11-18T09:16:21;10.10;;;7.83;;
15256;SDS011;7731;50.720;6.912;2023-11-18T09:18:54;16.43;;;9.80;;
15256;SDS011;7731;50.720;6.912;2023-11-18T09:21:29;10.50;;;8.17;;
15256;SDS011;7731;50.720;6.912;2023-11-18T09:24:02;11.40;;;8.23;;
15256;SDS011;7731;50.720;6.912;2023-11-18T09:26:40;9.20;;;7.67;;
15256;SDS011;7731;50.720;6.912;2023-11-18T09:29:14;6.93;;;6.23;;
15256;SDS011;7731;50.720;6.912;2023-11-18T09:31:46;6.20;;;4.73;;
15256;SDS011;7731;50.720;6.912;2023-11-18T09:34:21;6.27;;;4.60;;
15256;SDS011;7731;50.720;6.912;2023-11-18T09:37:05;6.17;;;4.40;;
15256;SDS011;7731;50.720;6.912;2023-11-18T09:39:40;5.67;;;4.10;;
15256;SDS011;7731;50.720;6.912;2023-11-18T09:42:12;5.67;;;4.37;;
15256;SDS011;7731;50.720;6.912;2023-11-18T09:44:45;7.60;;;4.97;;
15256;SDS011;7731;50.720;6.912;2023-11-18T09:47:17;5.60;;;3.80;;
15256;SDS011;7731;50.720;6.912;2023-11-18T09:49:54;5.80;;;3.77;;
15256;SDS011;7731;50.720;6.912;2023-11-18T09:52:28;5.73;;;4.33;;
15256;SDS011;7731;50.720;6.912;2023-11-18T09:55:03;8.27;;;4.40;;
15256;SDS011;7731;50.720;6.912;2023-11-18T09:57:48;7.63;;;4.07;;
15256;SDS011;7731;50.720;6.912;2023-11-18T10:00:26;6.07;;;4.20;;
15256;SDS011;7731;50.720;6.912;2023-11-18T10:02:59;8.70;;;4.30;;
15256;SDS011;7731;50.720;6.912;2023-11-18T10:05:39;5.83;;;3.87;;
15256;SDS011;7731;50.720;6.912;2023-11-18T10:08:11;7.00;;;3.63;;
15256;SDS011;7731;50.720;6.912;2023-11-18T10:10:44;4.97;;;4.10;;
15256;SDS011;7731;50.720;6.912;2023-11-18T10:13:16;5.87;;;3.90;;
15256;SDS011;7731;50.720;6.912;2023-11-18T10:15:51;8.30;;;4.37;;
15256;SDS011;7731;50.720;6.912;2023-11-18T10:18:24;5.30;;;4.00;;
15256;SDS011;7731;50.720;6.912;2023-11-18T10:21:03;7.40;;;4.57;;
15256;SDS011;7731;50.720;6.912;2023-11-18T10:23:34;6.47;;;3.90;;
15256;SDS011;7731;50.720;6.912;2023-11-18T10:26:05;4.73;;;3.70;;
15256;SDS011;7731;50.720;6.912;2023-11-18T10:28:36;6.90;;;3.70;;
15256;SDS011;7731;50.720;6.912;2023-11-18T10:31:09;4.20;;;3.60;;
15256;SDS011;7731;50.720;6.912;2023-11-18T10:33:52;7.87;;;4.83;;
15256;SDS011;7731;50.720;6.912;2023-11-18T10:36:30;6.20;;;4.57;;
15256;SDS011;7731;50.720;6.912;2023-11-18T10:39:03;7.13;;;5.17;;
15256;SDS011;7731;50.720;6.912;2023-11-18T10:41:42;6.33;;;4.80;;
15256;SDS011;7731;50.720;6.912;2023-11-18T10:44:15;8.77;;;5.57;;
15256;SDS011;7731;50.720;6.912;2023-11-18T10:46:50;7.70;;;4.43;;
15256;SDS011;7731;50.720;6.912;2023-11-18T10:49:26;6.13;;;5.00;;
15256;SDS011;7731;50.720;6.912;2023-11-18T10:52:07;9.77;;;5.37;;
15256;SDS011;7731;50.720;6.912;2023-11-18T10:54:49;8.83;;;4.90;;
15256;SDS011;7731;50.720;6.912;2023-11-18T10:57:21;9.40;;;5.47;;
15256;SDS011;7731;50.720;6.912;2023-11-18T10:59:58;9.03;;;5.50;;
15256;SDS011;7731;50.720;6.912;2023-11-18T11:02:30;10.90;;;6.37;;
15256;SDS011;7731;50.720;6.912;2023-11-18T11:05:06;11.73;;;7.20;;
15256;SDS011;7731;50.720;6.912;2023-11-18T11:07:51;11.70;;;6.90;;
15256;SDS011;7731;50.720;6.912;2023-11-18T11:10:23;10.50;;;6.20;;
15256;SDS011;7731;50.720;6.912;2023-11-18T11:12:55;7.13;;;4.57;;
15256;SDS011;7731;50.720;6.912;2023-11-18T11:15:30;12.13;;;7.17;;
15256;SDS011;7731;50.720;6.912;2023-11-18T11:18:19;8.67;;;6.00;;
15256;SDS011;7731;50.720;6.912;2023-11-18T11:20:59;12.63;;;5.83;;
15256;SDS011;7731;50.720;6.912;2023-11-18T11:23:53;12.03;;;6.10;;
15256;SDS011;7731;50.720;6.912;2023-11-18T11:26:38;9.43;;;5.07;;
15256;SDS011;7731;50.720;6.912;2023-11-18T11:29:28;11.77;;;4.93;;
15256;SDS011;7731;50.720;6.912;2023-11-18T11:32:11;8.30;;;4.80;;
15256;SDS011;7731;50.720;6.912;2023-11-18T11:35:00;6.83;;;4.33;;
15256;SDS011;7731;50.720;6.912;2023-11-18T11:37:35;6.37;;;3.57;;
15256;SDS011;7731;50.720;6.912;2023-11-18T11:40:11;5.30;;;2.93;;
15256;SDS011;7731;50.720;6.912;2023-11-18T11:42:50;6.07;;;2.90;;
15256;SDS011;7731;50.720;6.912;2023-11-18T11:45:25;5.87;;;3.00;;
15256;SDS011;7731;50.720;6.912;2023-11-18T11:47:57;5.25;;;3.03;;
15256;SDS011;7731;50.720;6.912;2023-11-18T11:51:02;4.70;;;2.50;;
15256;SDS011;7731;50.720;6.912;2023-11-18T11:53:49;4.38;;;3.60;;
15256;SDS011;7731;50.720;6.912;2023-11-18T11:56:40;9.95;;;5.28;;
15256;SDS011;7731;50.720;6.912;2023-11-18T11:59:15;7.75;;;4.53;;
15256;SDS011;7731;50.720;6.912;2023-11-18T12:01:48;4.43;;;2.67;;
15256;SDS011;7731;50.720;6.912;2023-11-18T12:04:20;2.38;;;2.03;;
15256;SDS011;7731;50.720;6.912;2023-11-18T12:06:55;6.97;;;2.38;;
15256;SDS011;7731;50.720;6.912;2023-11-18T12:09:44;4.47;;;2.37;;
15256;SDS011;7731;50.720;6.912;2023-11-18T12:12:25;2.70;;;1.92;;
15256;SDS011;7731;50.720;6.912;2023-11-18T12:14:57;4.57;;;2.00;;
15256;SDS011;7731;50.720;6.912;2023-11-18T12:20:44;4.03;;;1.95;;
15256;SDS011;7731;50.720;6.912;2023-11-18T12:23:20;4.72;;;2.40;;
15256;SDS011;7731;50.720;6.912;2023-11-18T12:25:53;3.83;;;1.80;;
15256;SDS011;7731;50.720;6.912;2023-11-18T12:28:28;2.75;;;1.50;;
15256;SDS011;7731;50.720;6.912;2023-11-18T12:31:04;2.30;;;1.70;;
15256;SDS011;7731;50.720;6.912;2023-11-18T12:36:50;3.20;;;1.90;;
15256;SDS011;7731;50.720;6.912;2023-11-18T12:43:31;3.40;;;1.33;;
15256;SDS011;7731;50.720;6.912;2023-11-18T12:46:29;3.15;;;1.30;;
15256;SDS011;7731;50.720;6.912;2023-11-18T12:49:20;3.13;;;1.65;;
15256;SDS011;7731;50.720;6.912;2023-11-18T12:51:53;1.87;;;1.67;;
15256;SDS011;7731;50.720;6.912;2023-11-18T12:54:26;2.43;;;1.40;;
15256;SDS011;7731;50.720;6.912;2023-11-18T12:57:00;3.63;;;1.50;;
15256;SDS011;7731;50.720;6.912;2023-11-18T12:59:36;2.45;;;1.40;;
15256;SDS011;7731;50.720;6.912;2023-11-18T13:02:07;3.43;;;1.53;;
15256;SDS011;7731;50.720;6.912;2023-11-18T13:04:40;3.23;;;1.50;;
15256;SDS011;7731;50.720;6.912;2023-11-18T13:07:14;4.03;;;1.75;;
15256;SDS011;7731;50.720;6.912;2023-11-18T13:09:45;3.13;;;1.83;;
15256;SDS011;7731;50.720;6.912;2023-11-18T13:12:16;3.00;;;1.70;;
15256;SDS011;7731;50.720;6.912;2023-11-18T13:14:53;2.20;;;1.47;;
15256;SDS011;7731;50.720;6.912;2023-11-18T13:17:23;3.73;;;1.90;;
15256;SDS011;7731;50.720;6.912;2023-11-18T13:19:54;2.90;;;1.77;;
15256;SDS011;7731;50.720;6.912;2023-11-18T13:22:26;2.70;;;1.57;;
15256;SDS011;7731;50.720;6.912;2023-11-18T13:25:11;3.47;;;2.27;;
15256;SDS011;7731;50.720;6.912;2023-11-18T13:27:44;5.87;;;2.27;;
15256;SDS011;7731;50.720;6.912;2023-11-18T13:30:18;5.17;;;1.90;;
15256;SDS011;7731;50.720;6.912;2023-11-18T13:32:49;6.07;;;2.47;;
15256;SDS011;7731;50.720;6.912;2023-11-18T13:35:19;3.07;;;1.90;;
15256;SDS011;7731;50.720;6.912;2023-11-18T13:37:51;2.40;;;2.10;;
15256;SDS011;7731;50.720;6.912;2023-11-18T13:40:22;3.50;;;1.97;;
15256;SDS011;7731;50.720;6.912;2023-11-18T13:43:02;3.37;;;2.20;;
15256;SDS011;7731;50.720;6.912;2023-11-18T13:45:38;4.23;;;2.20;;
15256;SDS011;7731;50.720;6.912;2023-11-18T13:48:11;4.50;;;1.93;;
15256;SDS011;7731;50.720;6.912;2023-11-18T13:50:41;5.43;;;2.30;;
15256;SDS011;7731;50.720;6.912;2023-11-18T13:53:12;3.47;;;2.40;;
15256;SDS011;7731;50.720;6.912;2023-11-18T13:55:43;5.73;;;2.70;;
15256;SDS011;7731;50.720;6.912;2023-11-18T13:58:15;5.97;;;4.03;;
15256;SDS011;7731;50.720;6.912;2023-11-18T14:00:48;4.63;;;2.57;;
15256;SDS011;7731;50.720;6.912;2023-11-18T14:03:19;3.37;;;2.80;;
15256;SDS011;7731;50.720;6.912;2023-11-18T14:05:50;4.97;;;2.80;;
15256;SDS011;7731;50.720;6.912;2023-11-18T14:08:22;4.53;;;2.77;;
15256;SDS011;7731;50.720;6.912;2023-11-18T14:10:52;3.87;;;2.80;;
15256;SDS011;7731;50.720;6.912;2023-11-18T14:13:29;7.07;;;3.10;;
15256;SDS011;7731;50.720;6.912;2023-11-18T14:16:04;5.03;;;3.10;;
15256;SDS011;7731;50.720;6.912;2023-11-18T14:18:39;8.77;;;3.43;;
15256;SDS011;7731;50.720;6.912;2023-11-18T14:21:11;4.47;;;3.10;;
15256;SDS011;7731;50.720;6.912;2023-11-18T14:23:42;5.13;;;2.97;;
15256;SDS011;7731;50.720;6.912;2023-11-18T14:26:12;3.63;;;3.20;;
15256;SDS011;7731;50.720;6.912;2023-11-18T14:28:42;7.20;;;3.90;;
15256;SDS011;7731;50.720;6.912;2023-11-18T14:31:15;5.00;;;2.93;;
15256;SDS011;7731;50.720;6.912;2023-11-18T14:33:46;6.43;;;3.57;;
15256;SDS011;7731;50.720;6.912;2023-11-18T14:36:16;5.67;;;3.70;;
15256;SDS011;7731;50.720;6.912;2023-11-18T14:38:47;5.30;;;3.40;;
15256;SDS011;7731;50.720;6.912;2023-11-18T14:41:17;3.20;;;2.90;;
15256;SDS011;7731;50.720;6.912;2023-11-18T14:43:55;3.70;;;3.13;;
15256;SDS011;7731;50.720;6.912;2023-11-18T14:46:34;6.10;;;3.43;;
15256;SDS011;7731;50.720;6.912;2023-11-18T14:49:07;5.90;;;3.70;;
15256;SDS011;7731;50.720;6.912;2023-11-18T14:51:37;4.83;;;3.10;;
15256;SDS011;7731;50.720;6.912;2023-11-18T14:54:09;5.17;;;3.57;;
15256;SDS011;7731;50.720;6.912;2023-11-18T14:56:40;5.53;;;3.00;;
15256;SDS011;7731;50.720;6.912;2023-11-18T14:59:10;4.87;;;3.00;;
15256;SDS011;7731;50.720;6.912;2023-11-18T15:01:43;4.63;;;3.30;;
15256;SDS011;7731;50.720;6.912;2023-11-18T15:04:18;5.10;;;2.57;;
15256;SDS011;7731;50.720;6.912;2023-11-18T15:06:50;8.40;;;3.60;;
15256;SDS011;7731;50.720;6.912;2023-11-18T15:09:22;6.10;;;3.30;;
15256;SDS011;7731;50.720;6.912;2023-11-18T15:11:58;4.57;;;2.97;;
15256;SDS011;7731;50.720;6.912;2023-11-18T15:14:29;5.40;;;3.17;;
15256;SDS011;7731;50.720;6.912;2023-11-18T15:17:04;8.23;;;3.30;;
15256;SDS011;7731;50.720;6.912;2023-11-18T15:19:35;5.30;;;3.53;;
15256;SDS011;7731;50.720;6.912;2023-11-18T15:22:06;4.43;;;3.30;;
15256;SDS011;7731;50.720;6.912;2023-11-18T15:24:38;4.37;;;2.97;;
15256;SDS011;7731;50.720;6.912;2023-11-18T15:27:09;4.00;;;3.53;;
15256;SDS011;7731;50.720;6.912;2023-11-18T15:29:41;6.57;;;2.57;;
15256;SDS011;7731;50.720;6.912;2023-11-18T15:32:18;3.73;;;2.40;;